sensor_id;sensor_type;location;lat;lon;timestamp;P1;durP1;ratioP1;P2;durP2;ratioP2
68680;SDS011;55836;49.858;6.756;2024-01-07T00:01:39;2.87;;;2.20;;
68680;SDS011;55836;49.858;6.756;2024-01-07T00:04:05;3.20;;;2.60;;
68680;SDS011;55836;49.858;6.756;2024-01-07T00:06:31;2.00;;;1.80;;
68680;SDS011;55836;49.858;6.756;2024-01-07T00:08:57;2.67;;;2.30;;
68680;SDS011;55836;49.858;6.756;2024-01-07T00:11:23;2.73;;;1.83;;
68680;SDS011;55836;49.858;6.756;2024-01-07T00:13:49;4.03;;;2.50;;
68680;SDS011;55836;49.858;6.756;2024-01-07T00:16:15;3.30;;;2.13;;
68680;SDS011;55836;49.858;6.756;2024-01-07T00:18:41;3.23;;;2.50;;
68680;SDS011;55836;49.858;6.756;2024-01-07T00:21:07;4.43;;;2.47;;
68680;SDS011;55836;49.858;6.756;2024-01-07T00:23:33;3.83;;;2.63;;
68680;SDS011;55836;49.858;6.756;2024-01-07T00:25:59;3.20;;;2.50;;
68680;SDS011;55836;49.858;6.756;2024-01-07T00:28:25;3.47;;;2.30;;
68680;SDS011;55836;49.858;6.756;2024-01-07T00:30:51;4.73;;;3.10;;
68680;SDS011;55836;49.858;6.756;2024-01-07T00:33:17;3.90;;;2.87;;
68680;SDS011;55836;49.858;6.756;2024-01-07T00:35:43;4.03;;;3.00;;
68680;SDS011;55836;49.858;6.756;2024-01-07T00:38:09;3.73;;;2.73;;
68680;SDS011;55836;49.858;6.756;2024-01-07T00:40:35;3.57;;;3.00;;
68680;SDS011;55836;49.858;6.756;2024-01-07T00:43:01;3.93;;;2.80;;
68680;SDS011;55836;49.858;6.756;2024-01-07T00:45:27;5.40;;;3.47;;
68680;SDS011;55836;49.858;6.756;2024-01-07T00:47:53;6.07;;;3.27;;
68680;SDS011;55836;49.858;6.756;2024-01-07T00:50:19;5.17;;;3.20;;
68680;SDS011;55836;49.858;6.756;2024-01-07T00:52:45;4.83;;;3.50;;
68680;SDS011;55836;49.858;6.756;2024-01-07T00:55:11;4.60;;;3.20;;
68680;SDS011;55836;49.858;6.756;2024-01-07T00:57:37;5.17;;;3.20;;
68680;SDS011;55836;49.858;6.756;2024-01-07T01:00:07;5.30;;;4.00;;
68680;SDS011;55836;49.858;6.756;2024-01-07T01:02:33;5.90;;;4.63;;
68680;SDS011;55836;49.858;6.756;2024-01-07T01:05:01;6.10;;;3.93;;
68680;SDS011;55836;49.858;6.756;2024-01-07T01:07:27;6.30;;;4.13;;
68680;SDS011;55836;49.858;6.756;2024-01-07T01:09:53;6.77;;;4.43;;
68680;SDS011;55836;49.858;6.756;2024-01-07T01:12:19;7.30;;;4.23;;
68680;SDS011;55836;49.858;6.756;2024-01-07T01:14:45;6.53;;;4.33;;
68680;SDS011;55836;49.858;6.756;2024-01-07T01:17:10;6.70;;;4.50;;
68680;SDS011;55836;49.858;6.756;2024-01-07T01:19:36;9.23;;;5.77;;
68680;SDS011;55836;49.858;6.756;2024-01-07T01:22:02;8.40;;;4.27;;
68680;SDS011;55836;49.858;6.756;2024-01-07T01:24:28;7.07;;;4.50;;
68680;SDS011;55836;49.858;6.756;2024-01-07T01:26:54;5.83;;;4.33;;
68680;SDS011;55836;49.858;6.756;2024-01-07T01:29:20;7.13;;;4.67;;
68680;SDS011;55836;49.858;6.756;2024-01-07T01:31:46;9.00;;;5.07;;
68680;SDS011;55836;49.858;6.756;2024-01-07T01:34:12;9.50;;;5.27;;
68680;SDS011;55836;49.858;6.756;2024-01-07T01:36:38;7.30;;;4.40;;
68680;SDS011;55836;49.858;6.756;2024-01-07T01:39:04;8.50;;;5.23;;
68680;SDS011;55836;49.858;6.756;2024-01-07T01:41:30;9.40;;;5.57;;
68680;SDS011;55836;49.858;6.756;2024-01-07T01:43:57;8.77;;;4.90;;
68680;SDS011;55836;49.858;6.756;2024-01-07T01:46:23;6.80;;;4.70;;
68680;SDS011;55836;49.858;6.756;2024-01-07T01:48:49;8.33;;;5.43;;
68680;SDS011;55836;49.858;6.756;2024-01-07T01:51:15;6.80;;;4.57;;
68680;SDS011;55836;49.858;6.756;2024-01-07T01:53:41;8.87;;;4.73;;
68680;SDS011;55836;49.858;6.756;2024-01-07T01:56:08;10.73;;;5.40;;
68680;SDS011;55836;49.858;6.756;2024-01-07T01:58:34;7.07;;;5.03;;
68680;SDS011;55836;49.858;6.756;2024-01-07T02:01:00;6.57;;;4.40;;
68680;SDS011;55836;49.858;6.756;2024-01-07T02:03:26;6.97;;;4.63;;
68680;SDS011;55836;49.858;6.756;2024-01-07T02:05:52;7.60;;;4.60;;
68680;SDS011;55836;49.858;6.756;2024-01-07T02:08:18;5.80;;;4.37;;
68680;SDS011;55836;49.858;6.756;2024-01-07T02:10:45;8.03;;;4.73;;
68680;SDS011;55836;49.858;6.756;2024-01-07T02:13:11;7.50;;;4.77;;
68680;SDS011;55836;49.858;6.756;2024-01-07T02:15:37;5.63;;;3.60;;
68680;SDS011;55836;49.858;6.756;2024-01-07T02:18:03;9.97;;;4.83;;
68680;SDS011;55836;49.858;6.756;2024-01-07T02:20:31;7.43;;;4.27;;
68680;SDS011;55836;49.858;6.756;2024-01-07T02:22:57;7.47;;;4.73;;
68680;SDS011;55836;49.858;6.756;2024-01-07T02:25:24;6.53;;;4.50;;
68680;SDS011;55836;49.858;6.756;2024-01-07T02:27:50;8.23;;;5.10;;
68680;SDS011;55836;49.858;6.756;2024-01-07T02:30:16;7.13;;;4.47;;
68680;SDS011;55836;49.858;6.756;2024-01-07T02:32:42;6.50;;;4.47;;
68680;SDS011;55836;49.858;6.756;2024-01-07T02:35:08;7.87;;;4.97;;
68680;SDS011;55836;49.858;6.756;2024-01-07T02:37:34;5.20;;;4.17;;
68680;SDS011;55836;49.858;6.756;2024-01-07T02:40:00;8.50;;;5.03;;
68680;SDS011;55836;49.858;6.756;2024-01-07T02:42:26;7.80;;;4.80;;
68680;SDS011;55836;49.858;6.756;2024-01-07T02:44:52;6.97;;;4.57;;
68680;SDS011;55836;49.858;6.756;2024-01-07T02:47:18;7.60;;;4.43;;
68680;SDS011;55836;49.858;6.756;2024-01-07T02:49:44;5.47;;;4.10;;
68680;SDS011;55836;49.858;6.756;2024-01-07T02:52:10;6.90;;;4.33;;
68680;SDS011;55836;49.858;6.756;2024-01-07T02:54:36;7.53;;;4.40;;
68680;SDS011;55836;49.858;6.756;2024-01-07T02:57:02;8.17;;;4.33;;
68680;SDS011;55836;49.858;6.756;2024-01-07T02:59:28;6.20;;;4.07;;
68680;SDS011;55836;49.858;6.756;2024-01-07T03:01:54;8.40;;;5.33;;
68680;SDS011;55836;49.858;6.756;2024-01-07T03:04:20;5.57;;;4.30;;
68680;SDS011;55836;49.858;6.756;2024-01-07T03:06:46;8.10;;;4.97;;
68680;SDS011;55836;49.858;6.756;2024-01-07T03:09:12;8.17;;;5.43;;
68680;SDS011;55836;49.858;6.756;2024-01-07T03:11:39;7.97;;;4.57;;
68680;SDS011;55836;49.858;6.756;2024-01-07T03:14:06;6.77;;;4.90;;
68680;SDS011;55836;49.858;6.756;2024-01-07T03:16:32;7.27;;;5.03;;
68680;SDS011;55836;49.858;6.756;2024-01-07T03:18:58;8.13;;;5.13;;
68680;SDS011;55836;49.858;6.756;2024-01-07T03:21:24;8.50;;;5.30;;
68680;SDS011;55836;49.858;6.756;2024-01-07T03:23:50;8.90;;;5.33;;
68680;SDS011;55836;49.858;6.756;2024-01-07T03:26:17;8.93;;;5.97;;
68680;SDS011;55836;49.858;6.756;2024-01-07T03:28:43;10.60;;;5.57;;
68680;SDS011;55836;49.858;6.756;2024-01-07T03:31:11;8.37;;;4.77;;
68680;SDS011;55836;49.858;6.756;2024-01-07T03:33:37;10.60;;;5.43;;
68680;SDS011;55836;49.858;6.756;2024-01-07T03:36:13;7.47;;;4.70;;
68680;SDS011;55836;49.858;6.756;2024-01-07T03:38:39;10.20;;;6.27;;
68680;SDS011;55836;49.858;6.756;2024-01-07T03:41:05;9.37;;;5.77;;
68680;SDS011;55836;49.858;6.756;2024-01-07T03:43:32;9.20;;;5.73;;
68680;SDS011;55836;49.858;6.756;2024-01-07T03:45:58;8.50;;;5.27;;
68680;SDS011;55836;49.858;6.756;2024-01-07T03:48:24;8.37;;;5.03;;
68680;SDS011;55836;49.858;6.756;2024-01-07T03:50:50;8.03;;;5.17;;
68680;SDS011;55836;49.858;6.756;2024-01-07T03:53:16;8.67;;;5.13;;
68680;SDS011;55836;49.858;6.756;2024-01-07T03:55:42;8.70;;;5.43;;
68680;SDS011;55836;49.858;6.756;2024-01-07T03:58:08;9.10;;;5.33;;
68680;SDS011;55836;49.858;6.756;2024-01-07T04:00:34;10.10;;;5.40;;
68680;SDS011;55836;49.858;6.756;2024-01-07T04:03:00;8.97;;;4.87;;
68680;SDS011;55836;49.858;6.756;2024-01-07T04:05:27;8.87;;;5.07;;
68680;SDS011;55836;49.858;6.756;2024-01-07T04:07:54;10.37;;;6.03;;
68680;SDS011;55836;49.858;6.756;2024-01-07T04:10:20;8.03;;;5.10;;
68680;SDS011;55836;49.858;6.756;2024-01-07T04:12:46;8.27;;;5.67;;
68680;SDS011;55836;49.858;6.756;2024-01-07T04:15:12;10.30;;;5.97;;
68680;SDS011;55836;49.858;6.756;2024-01-07T04:17:38;8.50;;;5.37;;
68680;SDS011;55836;49.858;6.756;2024-01-07T04:20:05;10.97;;;6.30;;
68680;SDS011;55836;49.858;6.756;2024-01-07T04:22:31;8.93;;;5.30;;
68680;SDS011;55836;49.858;6.756;2024-01-07T04:24:57;7.13;;;4.87;;
68680;SDS011;55836;49.858;6.756;2024-01-07T04:27:23;8.53;;;5.20;;
68680;SDS011;55836;49.858;6.756;2024-01-07T04:29:54;6.83;;;4.40;;
68680;SDS011;55836;49.858;6.756;2024-01-07T04:32:20;8.90;;;5.47;;
68680;SDS011;55836;49.858;6.756;2024-01-07T04:34:46;8.97;;;5.60;;
68680;SDS011;55836;49.858;6.756;2024-01-07T04:37:12;9.30;;;5.27;;
68680;SDS011;55836;49.858;6.756;2024-01-07T04:39:38;9.97;;;5.77;;
68680;SDS011;55836;49.858;6.756;2024-01-07T04:42:04;10.13;;;5.37;;
68680;SDS011;55836;49.858;6.756;2024-01-07T04:44:30;7.93;;;4.43;;
68680;SDS011;55836;49.858;6.756;2024-01-07T04:46:56;7.97;;;5.83;;
68680;SDS011;55836;49.858;6.756;2024-01-07T04:49:22;8.27;;;5.83;;
68680;SDS011;55836;49.858;6.756;2024-01-07T04:51:48;9.97;;;6.00;;
68680;SDS011;55836;49.858;6.756;2024-01-07T04:54:14;9.93;;;5.93;;
68680;SDS011;55836;49.858;6.756;2024-01-07T04:56:40;9.80;;;6.07;;
68680;SDS011;55836;49.858;6.756;2024-01-07T04:59:06;11.17;;;5.93;;
68680;SDS011;55836;49.858;6.756;2024-01-07T05:01:32;10.40;;;5.13;;
68680;SDS011;55836;49.858;6.756;2024-01-07T05:03:59;10.90;;;4.97;;
68680;SDS011;55836;49.858;6.756;2024-01-07T05:06:25;12.60;;;5.60;;
68680;SDS011;55836;49.858;6.756;2024-01-07T05:08:50;8.03;;;5.20;;
68680;SDS011;55836;49.858;6.756;2024-01-07T05:11:16;9.23;;;5.40;;
68680;SDS011;55836;49.858;6.756;2024-01-07T05:13:42;8.40;;;5.73;;
68680;SDS011;55836;49.858;6.756;2024-01-07T05:16:08;12.80;;;6.07;;
68680;SDS011;55836;49.858;6.756;2024-01-07T05:18:34;7.83;;;5.17;;
68680;SDS011;55836;49.858;6.756;2024-01-07T05:21:00;10.83;;;5.97;;
68680;SDS011;55836;49.858;6.756;2024-01-07T05:23:26;12.00;;;6.20;;
68680;SDS011;55836;49.858;6.756;2024-01-07T05:25:52;10.90;;;6.17;;
68680;SDS011;55836;49.858;6.756;2024-01-07T05:28:18;11.83;;;5.77;;
68680;SDS011;55836;49.858;6.756;2024-01-07T05:30:45;11.97;;;6.10;;
68680;SDS011;55836;49.858;6.756;2024-01-07T05:33:11;10.43;;;5.57;;
68680;SDS011;55836;49.858;6.756;2024-01-07T05:35:37;12.17;;;5.23;;
68680;SDS011;55836;49.858;6.756;2024-01-07T05:38:03;9.77;;;5.77;;
68680;SDS011;55836;49.858;6.756;2024-01-07T05:40:29;10.07;;;5.50;;
68680;SDS011;55836;49.858;6.756;2024-01-07T05:42:55;10.13;;;6.03;;
68680;SDS011;55836;49.858;6.756;2024-01-07T05:45:21;10.63;;;5.83;;
68680;SDS011;55836;49.858;6.756;2024-01-07T05:47:47;10.83;;;5.63;;
68680;SDS011;55836;49.858;6.756;2024-01-07T05:50:13;8.57;;;5.90;;
68680;SDS011;55836;49.858;6.756;2024-01-07T05:52:41;9.17;;;5.87;;
68680;SDS011;55836;49.858;6.756;2024-01-07T05:55:08;9.97;;;5.03;;
68680;SDS011;55836;49.858;6.756;2024-01-07T05:57:34;11.47;;;5.80;;
68680;SDS011;55836;49.858;6.756;2024-01-07T06:00:00;10.33;;;5.50;;
68680;SDS011;55836;49.858;6.756;2024-01-07T06:02:26;12.53;;;6.23;;
68680;SDS011;55836;49.858;6.756;2024-01-07T06:04:52;9.97;;;5.27;;
68680;SDS011;55836;49.858;6.756;2024-01-07T06:07:18;9.77;;;5.93;;
68680;SDS011;55836;49.858;6.756;2024-01-07T06:09:44;12.70;;;7.00;;
68680;SDS011;55836;49.858;6.756;2024-01-07T06:12:10;11.23;;;6.03;;
68680;SDS011;55836;49.858;6.756;2024-01-07T06:14:36;10.53;;;5.83;;
68680;SDS011;55836;49.858;6.756;2024-01-07T06:17:02;8.23;;;5.33;;
68680;SDS011;55836;49.858;6.756;2024-01-07T06:19:29;9.27;;;6.00;;
68680;SDS011;55836;49.858;6.756;2024-01-07T06:21:55;11.33;;;6.23;;
68680;SDS011;55836;49.858;6.756;2024-01-07T06:24:21;9.37;;;5.70;;
68680;SDS011;55836;49.858;6.756;2024-01-07T06:26:47;9.53;;;5.20;;
68680;SDS011;55836;49.858;6.756;2024-01-07T06:29:13;10.03;;;5.80;;
68680;SDS011;55836;49.858;6.756;2024-01-07T06:31:43;11.53;;;5.87;;
68680;SDS011;55836;49.858;6.756;2024-01-07T06:34:10;7.93;;;5.13;;
68680;SDS011;55836;49.858;6.756;2024-01-07T06:36:38;10.90;;;5.33;;
68680;SDS011;55836;49.858;6.756;2024-01-07T06:39:05;10.27;;;5.53;;
68680;SDS011;55836;49.858;6.756;2024-01-07T06:41:32;8.37;;;5.27;;
68680;SDS011;55836;49.858;6.756;2024-01-07T06:43:58;10.53;;;4.87;;
68680;SDS011;55836;49.858;6.756;2024-01-07T06:46:24;10.67;;;6.53;;
68680;SDS011;55836;49.858;6.756;2024-01-07T06:48:50;10.40;;;5.33;;
68680;SDS011;55836;49.858;6.756;2024-01-07T06:51:17;9.87;;;6.83;;
68680;SDS011;55836;49.858;6.756;2024-01-07T06:53:43;12.47;;;7.17;;
68680;SDS011;55836;49.858;6.756;2024-01-07T06:56:09;8.40;;;5.13;;
68680;SDS011;55836;49.858;6.756;2024-01-07T06:58:35;9.27;;;4.87;;
68680;SDS011;55836;49.858;6.756;2024-01-07T07:01:01;7.80;;;4.63;;
68680;SDS011;55836;49.858;6.756;2024-01-07T07:03:27;10.40;;;5.93;;
68680;SDS011;55836;49.858;6.756;2024-01-07T07:05:53;7.33;;;5.00;;
68680;SDS011;55836;49.858;6.756;2024-01-07T07:08:19;10.10;;;5.57;;
68680;SDS011;55836;49.858;6.756;2024-01-07T07:10:45;9.27;;;5.97;;
68680;SDS011;55836;49.858;6.756;2024-01-07T07:13:11;7.53;;;5.13;;
68680;SDS011;55836;49.858;6.756;2024-01-07T07:15:37;6.37;;;4.50;;
68680;SDS011;55836;49.858;6.756;2024-01-07T07:18:03;5.80;;;3.87;;
68680;SDS011;55836;49.858;6.756;2024-01-07T07:20:29;6.00;;;3.63;;
68680;SDS011;55836;49.858;6.756;2024-01-07T07:22:55;8.03;;;4.87;;
68680;SDS011;55836;49.858;6.756;2024-01-07T07:25:22;9.43;;;5.07;;
68680;SDS011;55836;49.858;6.756;2024-01-07T07:27:48;8.30;;;5.03;;
68680;SDS011;55836;49.858;6.756;2024-01-07T07:30:14;7.30;;;4.73;;
68680;SDS011;55836;49.858;6.756;2024-01-07T07:32:40;6.93;;;4.40;;
68680;SDS011;55836;49.858;6.756;2024-01-07T07:35:06;6.23;;;4.37;;
68680;SDS011;55836;49.858;6.756;2024-01-07T07:37:33;7.23;;;5.13;;
68680;SDS011;55836;49.858;6.756;2024-01-07T07:39:59;7.43;;;4.87;;
68680;SDS011;55836;49.858;6.756;2024-01-07T07:42:24;7.47;;;4.57;;
68680;SDS011;55836;49.858;6.756;2024-01-07T07:44:51;7.10;;;4.30;;
68680;SDS011;55836;49.858;6.756;2024-01-07T07:47:16;6.00;;;4.10;;
68680;SDS011;55836;49.858;6.756;2024-01-07T07:49:42;8.23;;;4.30;;
68680;SDS011;55836;49.858;6.756;2024-01-07T07:52:09;7.40;;;4.10;;
68680;SDS011;55836;49.858;6.756;2024-01-07T07:54:36;6.37;;;4.07;;
68680;SDS011;55836;49.858;6.756;2024-01-07T07:57:03;8.13;;;4.93;;
68680;SDS011;55836;49.858;6.756;2024-01-07T07:59:29;7.07;;;4.53;;
68680;SDS011;55836;49.858;6.756;2024-01-07T08:01:55;6.60;;;4.63;;
68680;SDS011;55836;49.858;6.756;2024-01-07T08:04:21;9.77;;;4.60;;
68680;SDS011;55836;49.858;6.756;2024-01-07T08:06:47;7.63;;;4.77;;
68680;SDS011;55836;49.858;6.756;2024-01-07T08:09:13;5.27;;;4.03;;
68680;SDS011;55836;49.858;6.756;2024-01-07T08:11:39;6.30;;;4.10;;
68680;SDS011;55836;49.858;6.756;2024-01-07T08:14:05;5.47;;;3.80;;
68680;SDS011;55836;49.858;6.756;2024-01-07T08:16:32;6.30;;;4.00;;
68680;SDS011;55836;49.858;6.756;2024-01-07T08:18:57;7.07;;;4.73;;
68680;SDS011;55836;49.858;6.756;2024-01-07T08:21:23;7.63;;;4.57;;
68680;SDS011;55836;49.858;6.756;2024-01-07T08:23:50;6.57;;;4.37;;
68680;SDS011;55836;49.858;6.756;2024-01-07T08:26:19;7.53;;;4.93;;
68680;SDS011;55836;49.858;6.756;2024-01-07T08:28:45;5.63;;;4.00;;
68680;SDS011;55836;49.858;6.756;2024-01-07T08:31:11;5.03;;;3.67;;
68680;SDS011;55836;49.858;6.756;2024-01-07T08:33:37;6.67;;;4.03;;
68680;SDS011;55836;49.858;6.756;2024-01-07T08:36:03;6.17;;;4.03;;
68680;SDS011;55836;49.858;6.756;2024-01-07T08:38:30;5.43;;;3.63;;
68680;SDS011;55836;49.858;6.756;2024-01-07T08:40:56;4.53;;;3.63;;
68680;SDS011;55836;49.858;6.756;2024-01-07T08:43:22;5.83;;;3.10;;
68680;SDS011;55836;49.858;6.756;2024-01-07T08:45:48;5.40;;;3.73;;
68680;SDS011;55836;49.858;6.756;2024-01-07T08:48:14;6.13;;;3.47;;
68680;SDS011;55836;49.858;6.756;2024-01-07T08:50:40;5.77;;;3.83;;
68680;SDS011;55836;49.858;6.756;2024-01-07T08:53:06;4.03;;;2.83;;
68680;SDS011;55836;49.858;6.756;2024-01-07T08:55:31;4.80;;;3.63;;
68680;SDS011;55836;49.858;6.756;2024-01-07T08:57:57;4.40;;;3.13;;
68680;SDS011;55836;49.858;6.756;2024-01-07T09:00:23;3.93;;;3.40;;
68680;SDS011;55836;49.858;6.756;2024-01-07T09:02:52;3.67;;;2.80;;
68680;SDS011;55836;49.858;6.756;2024-01-07T09:05:18;4.27;;;2.63;;
68680;SDS011;55836;49.858;6.756;2024-01-07T09:07:44;4.47;;;3.07;;
68680;SDS011;55836;49.858;6.756;2024-01-07T09:10:10;3.97;;;2.70;;
68680;SDS011;55836;49.858;6.756;2024-01-07T09:12:38;3.33;;;2.60;;
68680;SDS011;55836;49.858;6.756;2024-01-07T09:15:04;3.00;;;2.60;;
68680;SDS011;55836;49.858;6.756;2024-01-07T09:17:32;2.77;;;2.50;;
68680;SDS011;55836;49.858;6.756;2024-01-07T09:19:58;3.13;;;2.50;;
68680;SDS011;55836;49.858;6.756;2024-01-07T09:22:24;3.23;;;2.27;;
68680;SDS011;55836;49.858;6.756;2024-01-07T09:24:50;3.40;;;2.63;;
68680;SDS011;55836;49.858;6.756;2024-01-07T09:27:16;4.67;;;2.97;;
68680;SDS011;55836;49.858;6.756;2024-01-07T09:29:42;2.73;;;2.40;;
68680;SDS011;55836;49.858;6.756;2024-01-07T09:32:08;2.90;;;2.10;;
68680;SDS011;55836;49.858;6.756;2024-01-07T09:34:34;6.50;;;3.40;;
68680;SDS011;55836;49.858;6.756;2024-01-07T09:37:00;4.07;;;2.33;;
68680;SDS011;55836;49.858;6.756;2024-01-07T09:39:26;2.53;;;2.10;;
68680;SDS011;55836;49.858;6.756;2024-01-07T09:41:53;3.37;;;2.53;;
68680;SDS011;55836;49.858;6.756;2024-01-07T09:44:19;2.50;;;2.30;;
68680;SDS011;55836;49.858;6.756;2024-01-07T09:46:45;3.10;;;2.47;;
68680;SDS011;55836;49.858;6.756;2024-01-07T09:49:15;2.33;;;2.13;;
68680;SDS011;55836;49.858;6.756;2024-01-07T09:51:41;3.40;;;2.37;;
68680;SDS011;55836;49.858;6.756;2024-01-07T09:54:09;2.50;;;2.10;;
68680;SDS011;55836;49.858;6.756;2024-01-07T09:56:41;2.87;;;2.20;;
68680;SDS011;55836;49.858;6.756;2024-01-07T09:59:08;2.60;;;2.40;;
68680;SDS011;55836;49.858;6.756;2024-01-07T10:01:34;3.63;;;2.83;;
68680;SDS011;55836;49.858;6.756;2024-01-07T10:04:01;3.23;;;2.50;;
68680;SDS011;55836;49.858;6.756;2024-01-07T10:06:27;2.67;;;2.20;;
68680;SDS011;55836;49.858;6.756;2024-01-07T10:08:53;2.57;;;2.30;;
68680;SDS011;55836;49.858;6.756;2024-01-07T10:11:19;3.20;;;2.73;;
68680;SDS011;55836;49.858;6.756;2024-01-07T10:13:47;2.40;;;2.20;;
68680;SDS011;55836;49.858;6.756;2024-01-07T10:16:14;2.07;;;1.87;;
68680;SDS011;55836;49.858;6.756;2024-01-07T10:18:40;2.40;;;2.10;;
68680;SDS011;55836;49.858;6.756;2024-01-07T10:21:08;4.10;;;2.77;;
68680;SDS011;55836;49.858;6.756;2024-01-07T10:23:34;2.73;;;2.50;;
68680;SDS011;55836;49.858;6.756;2024-01-07T10:26:00;2.63;;;2.40;;
68680;SDS011;55836;49.858;6.756;2024-01-07T10:28:27;3.43;;;2.30;;
68680;SDS011;55836;49.858;6.756;2024-01-07T10:30:53;2.83;;;2.30;;
68680;SDS011;55836;49.858;6.756;2024-01-07T10:33:19;2.70;;;2.00;;
68680;SDS011;55836;49.858;6.756;2024-01-07T10:35:51;3.67;;;2.40;;
68680;SDS011;55836;49.858;6.756;2024-01-07T10:38:18;3.77;;;2.87;;
68680;SDS011;55836;49.858;6.756;2024-01-07T10:40:46;3.23;;;2.23;;
68680;SDS011;55836;49.858;6.756;2024-01-07T10:43:14;3.93;;;3.17;;
68680;SDS011;55836;49.858;6.756;2024-01-07T10:45:41;3.03;;;2.30;;
68680;SDS011;55836;49.858;6.756;2024-01-07T10:48:08;5.20;;;2.83;;
68680;SDS011;55836;49.858;6.756;2024-01-07T10:50:36;3.13;;;2.53;;
68680;SDS011;55836;49.858;6.756;2024-01-07T10:53:03;4.20;;;2.70;;
68680;SDS011;55836;49.858;6.756;2024-01-07T10:55:33;3.67;;;2.80;;
68680;SDS011;55836;49.858;6.756;2024-01-07T10:58:01;5.00;;;3.20;;
68680;SDS011;55836;49.858;6.756;2024-01-07T11:00:28;8.63;;;3.17;;
68680;SDS011;55836;49.858;6.756;2024-01-07T11:03:08;3.93;;;3.20;;
68680;SDS011;55836;49.858;6.756;2024-01-07T11:08:28;6.70;;;4.27;;
68680;SDS011;55836;49.858;6.756;2024-01-07T11:11:05;4.07;;;3.30;;
68680;SDS011;55836;49.858;6.756;2024-01-07T11:15:58;5.10;;;3.60;;
68680;SDS011;55836;49.858;6.756;2024-01-07T11:18:24;5.47;;;3.50;;
68680;SDS011;55836;49.858;6.756;2024-01-07T11:20:58;8.63;;;3.93;;
68680;SDS011;55836;49.858;6.756;2024-01-07T11:25:53;6.83;;;4.13;;
68680;SDS011;55836;49.858;6.756;2024-01-07T11:28:19;10.27;;;4.43;;
68680;SDS011;55836;49.858;6.756;2024-01-07T11:31:05;7.70;;;4.57;;
68680;SDS011;55836;49.858;6.756;2024-01-07T11:33:32;7.63;;;4.33;;
68680;SDS011;55836;49.858;6.756;2024-01-07T11:36:00;7.17;;;4.93;;
68680;SDS011;55836;49.858;6.756;2024-01-07T11:38:27;6.93;;;5.00;;
68680;SDS011;55836;49.858;6.756;2024-01-07T11:40:53;8.33;;;5.40;;
68680;SDS011;55836;49.858;6.756;2024-01-07T11:43:20;6.67;;;4.77;;
68680;SDS011;55836;49.858;6.756;2024-01-07T11:45:46;7.43;;;5.10;;
68680;SDS011;55836;49.858;6.756;2024-01-07T11:48:12;9.73;;;4.53;;
68680;SDS011;55836;49.858;6.756;2024-01-07T11:50:39;6.73;;;4.47;;
68680;SDS011;55836;49.858;6.756;2024-01-07T11:53:05;10.37;;;5.37;;
68680;SDS011;55836;49.858;6.756;2024-01-07T11:55:31;12.23;;;5.83;;
68680;SDS011;55836;49.858;6.756;2024-01-07T11:58:00;10.37;;;5.13;;
68680;SDS011;55836;49.858;6.756;2024-01-07T12:00:27;8.40;;;5.40;;
68680;SDS011;55836;49.858;6.756;2024-01-07T12:05:25;10.33;;;6.50;;
68680;SDS011;55836;49.858;6.756;2024-01-07T12:07:51;7.73;;;4.70;;
68680;SDS011;55836;49.858;6.756;2024-01-07T12:10:17;6.60;;;4.97;;
68680;SDS011;55836;49.858;6.756;2024-01-07T12:12:43;10.97;;;6.40;;
68680;SDS011;55836;49.858;6.756;2024-01-07T12:15:09;8.80;;;5.63;;
68680;SDS011;55836;49.858;6.756;2024-01-07T12:17:39;11.97;;;6.47;;
68680;SDS011;55836;49.858;6.756;2024-01-07T12:20:05;8.33;;;5.33;;
68680;SDS011;55836;49.858;6.756;2024-01-07T12:22:32;10.17;;;6.13;;
68680;SDS011;55836;49.858;6.756;2024-01-07T12:25:02;10.20;;;5.80;;
68680;SDS011;55836;49.858;6.756;2024-01-07T12:27:28;10.07;;;5.63;;
68680;SDS011;55836;49.858;6.756;2024-01-07T12:29:58;8.43;;;5.77;;
68680;SDS011;55836;49.858;6.756;2024-01-07T12:32:28;9.57;;;6.43;;
68680;SDS011;55836;49.858;6.756;2024-01-07T12:34:56;8.90;;;5.77;;
68680;SDS011;55836;49.858;6.756;2024-01-07T12:37:22;11.13;;;6.43;;
68680;SDS011;55836;49.858;6.756;2024-01-07T12:39:49;9.60;;;5.70;;
68680;SDS011;55836;49.858;6.756;2024-01-07T12:42:15;8.33;;;6.03;;
68680;SDS011;55836;49.858;6.756;2024-01-07T12:44:41;9.73;;;5.87;;
68680;SDS011;55836;49.858;6.756;2024-01-07T12:47:07;9.87;;;6.37;;
68680;SDS011;55836;49.858;6.756;2024-01-07T12:49:33;12.87;;;7.17;;
68680;SDS011;55836;49.858;6.756;2024-01-07T12:51:59;10.57;;;6.90;;
68680;SDS011;55836;49.858;6.756;2024-01-07T12:54:25;10.83;;;7.33;;
68680;SDS011;55836;49.858;6.756;2024-01-07T12:56:51;12.10;;;6.60;;
68680;SDS011;55836;49.858;6.756;2024-01-07T12:59:17;11.87;;;7.90;;
68680;SDS011;55836;49.858;6.756;2024-01-07T13:01:43;10.77;;;7.23;;
68680;SDS011;55836;49.858;6.756;2024-01-07T13:04:09;9.83;;;7.17;;
68680;SDS011;55836;49.858;6.756;2024-01-07T13:06:35;14.67;;;8.43;;
68680;SDS011;55836;49.858;6.756;2024-01-07T13:09:02;14.47;;;7.97;;
68680;SDS011;55836;49.858;6.756;2024-01-07T13:11:29;12.83;;;7.37;;
68680;SDS011;55836;49.858;6.756;2024-01-07T13:13:55;12.77;;;7.13;;
68680;SDS011;55836;49.858;6.756;2024-01-07T13:16:26;12.70;;;7.30;;
68680;SDS011;55836;49.858;6.756;2024-01-07T13:18:52;9.87;;;6.13;;
68680;SDS011;55836;49.858;6.756;2024-01-07T13:21:18;12.50;;;7.80;;
68680;SDS011;55836;49.858;6.756;2024-01-07T13:23:45;10.93;;;7.10;;
68680;SDS011;55836;49.858;6.756;2024-01-07T13:26:12;10.73;;;6.80;;
68680;SDS011;55836;49.858;6.756;2024-01-07T13:28:38;12.17;;;6.83;;
68680;SDS011;55836;49.858;6.756;2024-01-07T13:31:04;9.70;;;6.80;;
68680;SDS011;55836;49.858;6.756;2024-01-07T13:33:31;11.03;;;7.47;;
68680;SDS011;55836;49.858;6.756;2024-01-07T13:35:58;13.40;;;7.33;;
68680;SDS011;55836;49.858;6.756;2024-01-07T13:38:24;13.07;;;7.30;;
68680;SDS011;55836;49.858;6.756;2024-01-07T13:40:50;11.27;;;7.37;;
68680;SDS011;55836;49.858;6.756;2024-01-07T13:43:16;12.57;;;7.63;;
68680;SDS011;55836;49.858;6.756;2024-01-07T13:45:42;10.00;;;6.53;;
68680;SDS011;55836;49.858;6.756;2024-01-07T13:48:08;13.27;;;7.40;;
68680;SDS011;55836;49.858;6.756;2024-01-07T13:50:34;11.17;;;7.03;;
68680;SDS011;55836;49.858;6.756;2024-01-07T13:53:01;13.63;;;8.80;;
68680;SDS011;55836;49.858;6.756;2024-01-07T13:55:27;12.23;;;8.10;;
68680;SDS011;55836;49.858;6.756;2024-01-07T13:57:53;13.60;;;7.37;;
68680;SDS011;55836;49.858;6.756;2024-01-07T14:00:20;12.57;;;7.40;;
68680;SDS011;55836;49.858;6.756;2024-01-07T14:02:46;10.80;;;6.93;;
68680;SDS011;55836;49.858;6.756;2024-01-07T14:05:14;10.73;;;7.67;;
68680;SDS011;55836;49.858;6.756;2024-01-07T14:07:40;10.67;;;6.83;;
68680;SDS011;55836;49.858;6.756;2024-01-07T14:10:06;12.63;;;7.83;;
68680;SDS011;55836;49.858;6.756;2024-01-07T14:12:33;12.80;;;7.93;;
68680;SDS011;55836;49.858;6.756;2024-01-07T14:14:59;13.10;;;7.93;;
68680;SDS011;55836;49.858;6.756;2024-01-07T14:17:26;13.97;;;8.40;;
68680;SDS011;55836;49.858;6.756;2024-01-07T14:19:52;13.83;;;8.20;;
68680;SDS011;55836;49.858;6.756;2024-01-07T14:22:20;13.70;;;8.40;;
68680;SDS011;55836;49.858;6.756;2024-01-07T14:24:46;16.80;;;8.53;;
68680;SDS011;55836;49.858;6.756;2024-01-07T14:27:13;14.37;;;8.00;;
68680;SDS011;55836;49.858;6.756;2024-01-07T14:29:39;12.83;;;7.63;;
68680;SDS011;55836;49.858;6.756;2024-01-07T14:32:06;10.47;;;7.73;;
68680;SDS011;55836;49.858;6.756;2024-01-07T14:34:32;12.67;;;7.80;;
68680;SDS011;55836;49.858;6.756;2024-01-07T14:36:58;11.13;;;7.53;;
68680;SDS011;55836;49.858;6.756;2024-01-07T14:39:25;13.80;;;8.23;;
68680;SDS011;55836;49.858;6.756;2024-01-07T14:41:51;11.50;;;7.37;;
68680;SDS011;55836;49.858;6.756;2024-01-07T14:44:18;10.60;;;7.33;;
68680;SDS011;55836;49.858;6.756;2024-01-07T14:46:44;9.83;;;6.70;;
68680;SDS011;55836;49.858;6.756;2024-01-07T14:49:10;11.33;;;6.67;;